Time;durP1;ratioP1;P1;durP2;ratioP2;P2;SDS_P1;SDS_P2;PMS_P1;PMS_P2;Temp;Humidity;BMP_temperature;BMP_pressure;BME280_temperature;BME280_humidity;BME280_pressure;Samples;Min_cycle;Max_cycle;Signal;HPM_P1;HPM_P2
2023/01/19 00:02:17;;;;;;;26.48;13.63;;;2.10;99.90;;;;;;5046924;28;20045;-36
2023/01/19 00:04:42;;;;;;;24.50;13.57;;;2.50;99.90;;;;;;5047284;28;20626;-36
2023/01/19 00:07:08;;;;;;;24.67;12.38;;;2.10;99.90;;;;;;5046966;28;20451;-36
2023/01/19 00:09:37;;;;;;;25.50;12.52;;;1.90;99.90;;;;;;5046974;28;20049;-36
2023/01/19 00:12:03;;;;;;;25.05;12.68;;;2.10;99.90;;;;;;5046486;28;20053;-36
2023/01/19 00:14:29;;;;;;;25.25;12.73;;;2.10;99.90;;;;;;5046231;28;20135;-36
2023/01/19 00:16:55;;;;;;;28.42;14.85;;;2.10;99.90;;;;;;5046347;28;20119;-36
2023/01/19 00:19:20;;;;;;;28.55;14.55;;;2.10;99.90;;;;;;5046475;28;20102;-36
2023/01/19 00:21:46;;;;;;;28.52;12.25;;;2.10;99.90;;;;;;5046683;28;20423;-36
2023/01/19 00:24:12;;;;;;;24.35;12.13;;;2.10;99.90;;;;;;5046218;28;20064;-36
2023/01/19 00:26:41;;;;;;;25.00;12.20;;;2.10;99.90;;;;;;5046433;28;20045;-36
2023/01/19 00:29:08;;;;;;;27.42;12.63;;;4.60;99.90;;;;;;5046375;28;20749;-36
2023/01/19 00:31:35;;;;;;;23.88;11.10;;;2.10;99.90;;;;;;5046172;28;20048;-36
2023/01/19 00:34:01;;;;;;;17.35;9.45;;;1.90;99.90;;;;;;5045953;28;20048;-36
2023/01/19 00:36:27;;;;;;;18.77;10.85;;;2.10;99.90;;;;;;5046340;28;20064;-36
2023/01/19 00:38:53;;;;;;;20.55;11.50;;;2.10;99.90;;;;;;5046495;28;20037;-36
2023/01/19 00:42:38;;;;;;;18.77;9.88;;;2.10;99.90;;;;;;5046310;28;20044;-36
2023/01/19 00:44:04;;;;;;;18.00;9.23;;;2.10;99.90;;;;;;5045730;28;20053;-36
2023/01/19 00:46:30;;;;;;;20.73;11.20;;;2.10;99.90;;;;;;5045977;28;20063;-36
2023/01/19 00:48:56;;;;;;;15.55;8.52;;;1.90;99.90;;;;;;5046210;28;20037;-36
2023/01/19 00:51:21;;;;;;;17.40;9.68;;;2.10;99.90;;;;;;5046130;28;20041;-36
2023/01/19 00:53:47;;;;;;;14.45;6.65;;;2.10;99.90;;;;;;5044949;28;20063;-36
2023/01/19 00:56:13;;;;;;;13.48;7.40;;;2.70;99.90;;;;;;5045863;28;20534;-36
2023/01/19 00:58:38;;;;;;;17.30;7.95;;;2.10;99.90;;;;;;5045475;28;20415;-36
2023/01/19 01:01:04;;;;;;;10.10;6.15;;;2.10;99.90;;;;;;5046121;28;20094;-36
2023/01/19 01:03:31;;;;;;;12.98;5.63;;;2.10;99.90;;;;;;5045857;28;20084;-36
2023/01/19 01:05:57;;;;;;;10.90;5.85;;;2.10;99.90;;;;;;5046045;28;20056;-36
2023/01/19 01:08:23;;;;;;;10.32;5.93;;;2.00;99.90;;;;;;5046099;28;20041;-36
2023/01/19 01:10:50;;;;;;;11.10;5.75;;;2.00;99.90;;;;;;5045786;28;20091;-36
2023/01/19 01:13:15;;;;;;;10.50;5.93;;;2.00;99.90;;;;;;5045631;28;20112;-36
2023/01/19 01:15:41;;;;;;;10.52;5.82;;;1.90;99.90;;;;;;5045943;28;20774;-36
2023/01/19 01:18:07;;;;;;;10.45;4.97;;;1.90;99.90;;;;;;5045503;28;20085;-36
2023/01/19 01:20:35;;;;;;;9.45;4.40;;;1.90;99.90;;;;;;5045637;28;20040;-36
2023/01/19 01:23:01;;;;;;;10.50;5.07;;;1.70;99.90;;;;;;5045271;28;20171;-36
2023/01/19 01:25:29;;;;;;;10.35;5.55;;;1.80;99.90;;;;;;5045378;28;20406;-36
2023/01/19 01:27:55;;;;;;;12.18;4.78;;;1.80;99.90;;;;;;5045652;28;20044;-36
2023/01/19 01:30:22;;;;;;;11.10;5.13;;;1.80;99.90;;;;;;5045628;28;20053;-36
2023/01/19 01:32:48;;;;;;;13.77;5.35;;;1.80;99.90;;;;;;5045197;28;20475;-36
2023/01/19 01:35:15;;;;;;;9.38;5.00;;;1.60;99.90;;;;;;5044913;28;20143;-36
2023/01/19 01:37:41;;;;;;;14.38;4.80;;;1.80;99.90;;;;;;5044813;28;20040;-36
2023/01/19 01:40:11;;;;;;;9.30;4.53;;;1.80;99.90;;;;;;5045294;28;20045;-36
2023/01/19 01:42:39;;;;;;;13.18;4.22;;;1.70;99.90;;;;;;5045043;28;20577;-36
2023/01/19 01:45:27;;;;;;;8.63;4.93;;;1.70;99.90;;;;;;5045519;28;20118;-35
2023/01/19 01:47:57;;;;;;;8.18;4.95;;;1.70;99.90;;;;;;5045533;28;20045;-36
2023/01/19 01:50:26;;;;;;;12.15;5.72;;;1.70;99.90;;;;;;5045321;28;20383;-36
2023/01/19 01:52:57;;;;;;;12.98;5.43;;;0.60;99.90;;;;;;5045035;28;20505;-36
2023/01/19 01:55:24;;;;;;;12.30;5.75;;;1.70;99.90;;;;;;5045228;28;20056;-36
2023/01/19 01:57:56;;;;;;;13.80;6.88;;;1.60;99.90;;;;;;5044670;28;20064;-36
2023/01/19 02:00:23;;;;;;;13.48;6.95;;;1.50;99.90;;;;;;5044916;28;20045;-36
2023/01/19 02:02:53;;;;;;;14.18;7.50;;;1.60;99.90;;;;;;5044791;28;20740;-36
2023/01/19 02:05:35;;;;;;;17.45;8.98;;;1.60;99.90;;;;;;5046834;28;20049;-36
2023/01/19 02:14:03;;;;;;;21.45;10.95;;;1.60;99.90;;;;;;5049485;28;20052;-36
2023/01/19 02:16:29;;;;;;;23.33;11.07;;;1.60;99.90;;;;;;5031214;28;20360;-36
2023/01/19 02:18:56;;;;;;;23.90;11.77;;;1.60;99.90;;;;;;5048896;28;20052;-36
2023/01/19 02:21:34;;;;;;;24.27;11.90;;;1.60;99.90;;;;;;5048714;28;20107;-36
2023/01/19 02:24:01;;;;;;;27.33;12.68;;;1.60;99.90;;;;;;5048875;28;20660;-36
2023/01/19 02:26:38;;;;;;;25.02;13.63;;;-0.20;99.90;;;;;;5049136;28;20080;-36
2023/01/19 02:29:13;;;;;;;27.50;13.27;;;1.60;99.90;;;;;;5049075;28;20376;-36
2023/01/19 02:31:39;;;;;;;28.80;13.45;;;1.60;99.90;;;;;;5048317;28;20067;-36
2023/01/19 02:34:09;;;;;;;31.45;13.93;;;1.60;99.90;;;;;;5029754;28;20493;-36
2023/01/19 02:36:43;;;;;;;26.77;13.82;;;1.60;99.90;;;;;;5030105;28;20485;-36
2023/01/19 02:39:10;;;;;;;26.73;15.85;;;1.60;99.90;;;;;;5048816;28;20045;-36
2023/01/19 02:41:43;;;;;;;32.80;14.98;;;1.60;99.90;;;;;;5048836;28;20052;-36
2023/01/19 02:44:11;;;;;;;36.35;17.38;;;1.60;99.90;;;;;;5049307;28;20493;-36
2023/01/19 02:46:37;;;;;;;36.65;18.40;;;1.50;99.90;;;;;;5048950;28;20716;-36
2023/01/19 02:49:03;;;;;;;33.85;16.38;;;1.70;99.90;;;;;;5048972;28;20045;-36
2023/01/19 02:51:29;;;;;;;36.17;17.60;;;1.60;99.90;;;;;;5048708;28;20041;-36
2023/01/19 02:54:03;;;;;;;37.90;17.55;;;1.70;99.90;;;;;;5048518;28;20032;-36
2023/01/19 02:56:45;;;;;;;36.53;19.05;;;1.70;99.90;;;;;;5048554;28;20045;-36
2023/01/19 02:59:38;;;;;;;35.95;18.77;;;1.70;99.90;;;;;;5048453;28;20773;-36
2023/01/19 03:02:25;;;;;;;38.55;19.08;;;1.70;99.90;;;;;;5048610;28;20060;-35
2023/01/19 03:05:07;;;;;;;43.63;20.33;;;1.70;99.90;;;;;;5048146;28;20403;-36
2023/01/19 03:07:57;;;;;;;42.85;21.15;;;1.50;99.90;;;;;;5030078;28;20441;-36
2023/01/19 03:10:30;;;;;;;41.92;20.90;;;1.70;99.90;;;;;;5048280;28;20045;-36
2023/01/19 03:13:09;;;;;;;43.13;21.35;;;1.70;99.90;;;;;;5047889;28;20067;-36
2023/01/19 03:15:38;;;;;;;41.72;21.33;;;1.70;99.90;;;;;;5048389;28;20036;-36
2023/01/19 03:18:08;;;;;;;42.90;21.23;;;1.70;99.90;;;;;;5047509;28;20048;-36
2023/01/19 03:20:35;;;;;;;37.90;20.38;;;1.70;99.90;;;;;;5048490;28;20139;-36
2023/01/19 03:23:06;;;;;;;48.88;22.48;;;1.70;99.90;;;;;;5048265;28;20577;-36
2023/01/19 03:25:35;;;;;;;43.67;21.17;;;1.60;99.90;;;;;;5048542;28;20520;-36
2023/01/19 03:28:03;;;;;;;43.97;21.42;;;1.70;99.90;;;;;;5048261;28;20411;-36
2023/01/19 03:30:41;;;;;;;52.85;23.45;;;1.80;99.90;;;;;;5048464;28;20044;-36
2023/01/19 03:33:12;;;;;;;52.75;22.90;;;1.80;99.90;;;;;;5048083;28;20142;-36
2023/01/19 03:35:43;;;;;;;49.95;21.85;;;1.70;99.90;;;;;;5047442;28;20048;-36
2023/01/19 03:38:14;;;;;;;38.15;19.77;;;1.80;99.90;;;;;;5048222;28;20207;-36
2023/01/19 03:40:40;;;;;;;45.78;21.27;;;1.80;99.90;;;;;;5047810;28;20092;-36
2023/01/19 03:43:07;;;;;;;47.45;20.25;;;1.80;99.90;;;;;;5047638;28;20052;-36
2023/01/19 03:45:37;;;;;;;51.33;21.70;;;1.80;99.90;;;;;;5047874;28;20094;-36
2023/01/19 03:48:04;;;;;;;43.63;20.00;;;1.80;99.90;;;;;;5047300;28;20057;-36
2023/01/19 03:50:30;;;;;;;41.13;19.55;;;1.80;99.90;;;;;;5047535;28;20107;-36
2023/01/19 03:53:04;;;;;;;41.67;19.50;;;1.80;99.90;;;;;;5046820;28;20928;-36
2023/01/19 03:55:29;;;;;;;40.55;19.98;;;1.80;99.90;;;;;;5047248;28;20127;-36
2023/01/19 03:57:55;;;;;;;45.85;20.10;;;1.80;99.90;;;;;;5046803;28;20132;-35
2023/01/19 04:00:21;;;;;;;47.72;21.48;;;1.80;99.90;;;;;;5047148;28;20052;-36
2023/01/19 04:02:46;;;;;;;42.47;19.30;;;1.80;99.90;;;;;;5047345;28;20053;-36
2023/01/19 04:05:13;;;;;;;44.47;20.52;;;1.80;99.90;;;;;;5047543;28;20423;-36
2023/01/19 04:07:38;;;;;;;40.72;18.92;;;1.70;99.90;;;;;;5047473;28;20044;-36
2023/01/19 04:10:05;;;;;;;36.28;17.35;;;1.70;99.90;;;;;;5047198;28;20036;-36
2023/01/19 04:12:30;;;;;;;37.78;18.85;;;1.70;99.90;;;;;;5047136;28;20053;-36
2023/01/19 04:14:56;;;;;;;34.10;17.35;;;1.70;99.90;;;;;;5046560;28;20036;-36
2023/01/19 04:17:21;;;;;;;38.17;17.55;;;1.70;99.90;;;;;;5047197;28;20094;-36
2023/01/19 04:19:47;;;;;;;41.55;18.95;;;1.70;99.90;;;;;;5047067;28;20037;-36
2023/01/19 04:22:13;;;;;;;35.55;17.17;;;1.70;99.90;;;;;;5046445;28;20041;-36
2023/01/19 04:24:38;;;;;;;33.17;17.05;;;1.60;99.90;;;;;;5046864;28;20056;-36
2023/01/19 04:27:04;;;;;;;34.25;17.10;;;1.60;99.90;;;;;;5046825;28;20131;-36
2023/01/19 04:29:30;;;;;;;31.77;16.63;;;1.60;99.90;;;;;;5046631;28;20041;-36
2023/01/19 04:31:55;;;;;;;33.05;15.75;;;1.50;99.90;;;;;;5046490;28;20053;-36
2023/01/19 04:34:21;;;;;;;25.90;13.48;;;1.60;99.90;;;;;;5046572;28;20040;-36
2023/01/19 04:36:49;;;;;;;28.73;14.00;;;1.50;99.90;;;;;;5047215;28;20120;-36
2023/01/19 04:39:15;;;;;;;30.60;14.15;;;1.50;99.90;;;;;;5012257;28;20494;-36
2023/01/19 04:41:41;;;;;;;31.58;14.55;;;1.40;99.90;;;;;;5046694;28;20049;-36
2023/01/19 04:44:06;;;;;;;32.58;14.45;;;1.40;99.90;;;;;;5046343;28;20037;-36
2023/01/19 04:46:32;;;;;;;32.65;14.90;;;1.30;99.90;;;;;;5046417;28;20044;-36
2023/01/19 04:48:58;;;;;;;30.73;13.75;;;1.20;99.90;;;;;;5046522;28;20096;-36
2023/01/19 04:51:23;;;;;;;30.20;13.57;;;1.10;99.90;;;;;;5046334;28;20541;-36
2023/01/19 04:53:49;;;;;;;31.00;13.80;;;1.10;99.90;;;;;;5046491;28;20044;-36
2023/01/19 04:56:15;;;;;;;31.80;13.85;;;1.00;99.90;;;;;;5045829;28;20175;-36
2023/01/19 04:58:40;;;;;;;31.58;13.32;;;0.90;99.90;;;;;;5046041;28;20136;-36
2023/01/19 05:01:08;;;;;;;43.65;14.10;;;0.80;99.90;;;;;;5045825;28;20072;-36
2023/01/19 05:03:34;;;;;;;49.55;14.68;;;0.70;99.90;;;;;;5046281;28;20548;-36
2023/01/19 05:05:59;;;;;;;41.78;13.80;;;0.60;99.90;;;;;;5045434;28;20036;-36
2023/01/19 05:08:25;;;;;;;36.17;13.25;;;0.50;99.90;;;;;;5045651;28;20040;-36
2023/01/19 05:10:51;;;;;;;30.98;13.00;;;0.60;99.90;;;;;;5046010;28;20045;-36
2023/01/19 05:13:16;;;;;;;45.13;14.18;;;0.70;99.90;;;;;;5045631;28;20496;-36
2023/01/19 05:15:42;;;;;;;37.63;12.95;;;0.70;99.90;;;;;;5046117;28;20501;-36
2023/01/19 05:18:07;;;;;;;42.85;12.57;;;0.80;99.90;;;;;;5045830;28;20091;-36
2023/01/19 05:20:33;;;;;;;31.40;12.10;;;0.90;99.90;;;;;;5045476;28;20064;-36
2023/01/19 05:22:59;;;;;;;48.28;13.60;;;0.90;99.90;;;;;;5045269;28;20057;-36
2023/01/19 05:25:25;;;;;;;37.28;11.90;;;1.00;99.90;;;;;;5045346;28;20752;-36
2023/01/19 05:27:51;;;;;;;31.70;10.95;;;0.90;99.90;;;;;;5045423;28;20033;-36
2023/01/19 05:30:17;;;;;;;29.85;10.63;;;1.10;99.90;;;;;;5045261;28;20117;-36
2023/01/19 05:32:42;;;;;;;31.00;9.98;;;1.10;99.90;;;;;;5045265;28;20048;-36
2023/01/19 05:35:09;;;;;;;30.85;8.85;;;1.10;99.90;;;;;;5044748;28;20038;-37
2023/01/19 05:37:34;;;;;;;20.70;7.43;;;1.10;99.90;;;;;;5027548;28;20079;-38
2023/01/19 05:40:00;;;;;;;18.45;7.18;;;1.20;99.90;;;;;;5044439;28;20033;-38
2023/01/19 05:42:26;;;;;;;28.83;7.75;;;1.20;99.90;;;;;;5045123;28;20572;-37
2023/01/19 05:44:51;;;;;;;27.45;7.82;;;1.20;99.90;;;;;;5045357;28;20052;-37
2023/01/19 05:47:17;;;;;;;22.73;6.40;;;1.30;99.90;;;;;;5045557;28;20730;-38
2023/01/19 05:49:43;;;;;;;23.10;6.32;;;1.30;99.90;;;;;;5045579;28;20566;-37
2023/01/19 05:52:08;;;;;;;20.00;5.88;;;1.30;99.90;;;;;;5045033;28;20044;-37
2023/01/19 05:54:34;;;;;;;25.58;6.30;;;1.30;99.90;;;;;;5045472;28;20044;-37
2023/01/19 05:57:01;;;;;;;28.70;6.68;;;1.40;99.90;;;;;;5045504;28;20064;-38
2023/01/19 05:59:26;;;;;;;17.63;4.82;;;1.20;99.90;;;;;;5045619;28;20045;-37
2023/01/19 06:01:52;;;;;;;17.60;5.07;;;1.30;99.90;;;;;;5045521;28;20044;-37
2023/01/19 06:04:19;;;;;;;20.98;5.78;;;1.10;99.90;;;;;;5045803;28;20375;-37
2023/01/19 06:06:47;;;;;;;20.75;4.72;;;1.40;99.90;;;;;;5045115;28;20639;-37
2023/01/19 06:09:13;;;;;;;18.95;4.30;;;1.30;99.90;;;;;;5045590;28;20042;-37
2023/01/19 06:11:38;;;;;;;19.42;4.88;;;1.40;99.90;;;;;;5045088;28;20090;-37
2023/01/19 06:14:04;;;;;;;25.70;4.75;;;1.40;99.90;;;;;;5045756;28;20068;-38
2023/01/19 06:16:30;;;;;;;22.40;4.40;;;1.40;99.90;;;;;;5045237;28;20037;-38
2023/01/19 06:18:55;;;;;;;13.93;3.55;;;1.40;99.90;;;;;;5045590;28;20136;-37
2023/01/19 06:21:21;;;;;;;14.63;3.25;;;1.40;99.90;;;;;;5044717;28;20072;-37
2023/01/19 06:23:46;;;;;;;19.15;3.47;;;1.40;99.90;;;;;;5045422;28;20053;-37
2023/01/19 06:26:12;;;;;;;16.25;2.95;;;1.40;99.90;;;;;;5044727;28;20037;-37
2023/01/19 06:28:38;;;;;;;15.05;1.88;;;1.30;99.90;;;;;;5045481;28;20044;-37
2023/01/19 06:31:04;;;;;;;11.02;1.60;;;1.40;99.90;;;;;;5044779;28;20106;-37
2023/01/19 06:33:30;;;;;;;12.73;2.55;;;1.50;99.90;;;;;;5045184;28;20041;-37
2023/01/19 06:35:56;;;;;;;12.57;2.20;;;1.40;99.90;;;;;;5044939;28;20094;-37
2023/01/19 06:38:22;;;;;;;10.85;1.65;;;1.50;99.90;;;;;;5026640;28;20033;-38
2023/01/19 06:40:57;;;;;;;9.30;1.40;;;1.50;99.90;;;;;;5045145;28;20075;-38
2023/01/19 06:43:23;;;;;;;11.35;1.48;;;1.50;99.90;;;;;;5044525;28;20052;-38
2023/01/19 06:45:49;;;;;;;4.53;0.93;;;1.50;99.90;;;;;;5045078;28;20041;-37
2023/01/19 06:48:15;;;;;;;12.32;1.30;;;1.50;99.90;;;;;;5044667;28;20693;-37
2023/01/19 06:50:44;;;;;;;11.48;0.93;;;1.50;99.90;;;;;;5044783;28;20033;-37
2023/01/19 06:53:10;;;;;;;13.32;1.33;;;1.50;99.90;;;;;;5047799;28;20044;-38
2023/01/19 06:55:36;;;;;;;9.07;1.00;;;1.60;99.90;;;;;;5048311;28;20051;-37
2023/01/19 06:58:02;;;;;;;5.57;0.88;;;1.60;99.90;;;;;;5048456;28;20649;-37
2023/01/19 07:00:27;;;;;;;6.50;1.48;;;1.60;99.90;;;;;;5048157;28;20048;-37
2023/01/19 07:02:53;;;;;;;8.73;0.93;;;1.70;99.90;;;;;;5048108;28;20040;-37
2023/01/19 07:05:20;;;;;;;7.50;1.15;;;1.70;99.90;;;;;;5048215;28;20043;-37
2023/01/19 07:07:51;;;;;;;4.65;0.63;;;1.60;99.90;;;;;;5048590;28;20073;-37
2023/01/19 07:10:17;;;;;;;5.70;0.88;;;1.70;99.90;;;;;;5048764;28;20106;-38
2023/01/19 07:12:45;;;;;;;8.35;0.75;;;1.80;99.90;;;;;;5049173;28;20048;-38
2023/01/19 07:15:11;;;;;;;8.35;0.80;;;1.70;99.90;;;;;;5048891;28;20045;-38
2023/01/19 07:17:36;;;;;;;6.70;0.73;;;1.60;99.90;;;;;;5047717;28;20044;-37
2023/01/19 07:20:02;;;;;;;7.38;0.65;;;1.50;99.90;;;;;;5048450;28;20106;-37
2023/01/19 07:22:28;;;;;;;11.20;0.95;;;1.50;99.90;;;;;;5047745;28;20048;-38
2023/01/19 07:24:54;;;;;;;10.70;1.05;;;1.40;99.90;;;;;;5048428;28;20059;-37
2023/01/19 07:27:19;;;;;;;5.07;0.75;;;1.30;99.90;;;;;;5048057;28;20045;-37
2023/01/19 07:29:45;;;;;;;15.23;1.48;;;1.30;99.90;;;;;;5047933;28;20484;-38
2023/01/19 07:32:11;;;;;;;10.45;1.20;;;1.30;99.90;;;;;;5048033;28;20585;-37
2023/01/19 07:34:37;;;;;;;10.10;1.25;;;1.20;99.90;;;;;;5048100;28;20043;-37
2023/01/19 07:37:03;;;;;;;10.30;1.02;;;1.20;99.90;;;;;;5047859;28;20579;-37
2023/01/19 07:39:30;;;;;;;2.80;0.50;;;1.20;99.90;;;;;;5047590;28;20734;-37
2023/01/19 07:41:56;;;;;;;11.00;1.60;;;1.20;99.90;;;;;;5047744;28;20041;-37
2023/01/19 07:44:22;;;;;;;9.85;0.88;;;1.20;99.90;;;;;;5047638;28;20036;-37
2023/01/19 07:46:49;;;;;;;10.27;1.30;;;1.20;99.90;;;;;;5029651;28;20120;-37
2023/01/19 07:49:15;;;;;;;12.65;1.52;;;1.10;99.90;;;;;;5047756;28;20057;-37
2023/01/19 07:51:42;;;;;;;7.80;0.50;;;2.90;99.90;;;;;;5047352;28;20102;-38
2023/01/19 07:54:08;;;;;;;12.05;0.85;;;1.30;99.90;;;;;;5047464;28;20427;-37
2023/01/19 07:56:33;;;;;;;13.57;0.80;;;1.40;99.90;;;;;;5047110;28;20033;-38
2023/01/19 07:58:59;;;;;;;9.90;1.20;;;1.40;99.90;;;;;;5047621;28;20041;-37
2023/01/19 08:01:25;;;;;;;11.73;1.00;;;1.30;99.90;;;;;;5047580;28;20519;-37
2023/01/19 08:03:50;;;;;;;8.38;0.60;;;1.40;99.90;;;;;;5047452;28;20135;-37
2023/01/19 08:06:26;;;;;;;19.55;1.10;;;1.50;99.90;;;;;;5047765;28;20045;-37
2023/01/19 08:08:52;;;;;;;4.75;0.50;;;1.50;99.90;;;;;;5047930;28;20041;-37
2023/01/19 08:11:17;;;;;;;13.30;0.90;;;1.60;99.90;;;;;;5047770;28;20418;-37
2023/01/19 08:13:43;;;;;;;11.48;1.20;;;1.60;99.90;;;;;;5047207;28;20479;-37
2023/01/19 08:16:09;;;;;;;13.57;1.63;;;1.70;99.90;;;;;;5047000;28;20043;-37
2023/01/19 08:18:35;;;;;;;16.55;1.27;;;1.80;99.90;;;;;;5046963;28;20119;-37
2023/01/19 08:21:00;;;;;;;8.77;0.45;;;1.70;99.90;;;;;;5047000;28;20041;-37
2023/01/19 08:23:29;;;;;;;18.80;1.83;;;1.90;99.90;;;;;;5046626;28;20064;-37
2023/01/19 08:25:55;;;;;;;12.98;1.45;;;2.00;99.90;;;;;;5047147;28;20045;-37
2023/01/19 08:28:21;;;;;;;14.07;0.70;;;2.00;99.90;;;;;;5047090;28;20788;-37
2023/01/19 08:30:52;;;;;;;13.55;1.02;;;2.10;99.90;;;;;;5047049;28;20049;-37
2023/01/19 08:33:19;;;;;;;13.27;0.65;;;2.20;99.90;;;;;;5046725;28;20099;-37
2023/01/19 08:35:48;;;;;;;14.25;0.75;;;3.30;99.90;;;;;;5046666;28;20040;-37
2023/01/19 08:38:14;;;;;;;15.25;1.05;;;2.30;99.90;;;;;;5046853;28;20110;-38
2023/01/19 08:40:41;;;;;;;12.98;0.95;;;2.40;99.90;;;;;;5012828;28;20072;-37
2023/01/19 08:43:12;;;;;;;20.05;2.05;;;2.40;99.90;;;;;;5046702;28;20047;-37
2023/01/19 08:45:41;;;;;;;10.15;0.68;;;2.40;99.90;;;;;;5046847;28;20138;-37
2023/01/19 08:48:07;;;;;;;12.18;1.08;;;2.40;99.90;;;;;;5046851;28;20059;-38
2023/01/19 08:50:33;;;;;;;13.80;1.10;;;2.40;99.90;;;;;;5046654;28;20045;-37
2023/01/19 08:53:01;;;;;;;12.50;0.82;;;2.30;99.90;;;;;;5046658;28;20367;-37
2023/01/19 08:55:28;;;;;;;14.75;1.65;;;2.30;99.90;;;;;;5046376;28;20041;-38
2023/01/19 08:57:58;;;;;;;14.82;1.02;;;2.20;99.90;;;;;;5046099;28;20052;-37
2023/01/19 09:00:26;;;;;;;14.27;1.20;;;2.30;99.90;;;;;;5045684;28;20101;-37
2023/01/19 09:02:52;;;;;;;20.02;2.17;;;2.40;99.90;;;;;;5011002;28;20125;-37
2023/01/19 09:05:18;;;;;;;12.02;1.02;;;2.50;99.90;;;;;;5045890;28;20538;-37
2023/01/19 09:07:46;;;;;;;21.35;2.78;;;2.80;99.90;;;;;;5045814;28;20052;-38
2023/01/19 09:10:14;;;;;;;25.13;1.63;;;2.60;99.90;;;;;;5045922;28;20053;-37
2023/01/19 09:12:40;;;;;;;13.25;0.95;;;2.70;99.90;;;;;;5045698;28;20041;-37
2023/01/19 09:15:06;;;;;;;14.18;1.67;;;2.60;99.90;;;;;;5045348;28;20033;-37
2023/01/19 09:17:32;;;;;;;13.60;1.75;;;2.70;99.90;;;;;;5045276;28;20903;-37
2023/01/19 09:19:58;;;;;;;16.02;1.50;;;2.50;99.90;;;;;;5045513;28;20049;-37
2023/01/19 09:22:24;;;;;;;16.73;1.77;;;2.60;99.90;;;;;;5045253;28;20080;-37
2023/01/19 09:24:50;;;;;;;12.73;1.52;;;2.50;99.90;;;;;;5026035;28;20150;-37
2023/01/19 09:27:16;;;;;;;12.50;1.63;;;2.50;99.90;;;;;;5044416;28;20041;-37
2023/01/19 09:29:42;;;;;;;20.52;1.40;;;2.60;99.90;;;;;;5044646;28;20541;-37
2023/01/19 09:32:10;;;;;;;19.88;1.60;;;2.70;99.90;;;;;;5044235;28;20048;-37
2023/01/19 09:34:35;;;;;;;16.98;1.42;;;2.70;99.90;;;;;;5044720;28;20045;-37
2023/01/19 09:37:02;;;;;;;13.85;1.35;;;2.80;99.90;;;;;;5044493;28;20044;-37
2023/01/19 09:39:28;;;;;;;19.55;2.00;;;2.80;99.90;;;;;;5044905;28;20056;-38
2023/01/19 09:42:06;;;;;;;23.60;3.28;;;2.80;99.90;;;;;;5044987;28;20048;-37
2023/01/19 09:44:34;;;;;;;17.88;2.10;;;3.00;99.90;;;;;;5045241;28;20152;-37
2023/01/19 09:47:11;;;;;;;20.70;2.00;;;2.80;99.90;;;;;;5044899;28;20041;-38
2023/01/19 09:49:44;;;;;;;29.45;2.38;;;2.90;99.90;;;;;;5045338;28;20045;-37
2023/01/19 09:52:12;;;;;;;19.60;1.98;;;2.90;99.90;;;;;;5045459;28;20048;-37
2023/01/19 09:54:53;;;;;;;20.52;1.60;;;2.80;99.90;;;;;;5045052;28;20838;-38
2023/01/19 09:57:24;;;;;;;20.77;3.47;;;2.80;99.90;;;;;;5045121;28;20052;-37
2023/01/19 09:59:50;;;;;;;22.27;1.83;;;2.70;99.90;;;;;;5044641;28;20406;-37
2023/01/19 10:02:40;;;;;;;27.77;2.97;;;2.70;99.90;;;;;;5044934;28;20075;-37
2023/01/19 10:05:25;;;;;;;17.92;1.63;;;2.50;99.90;;;;;;5043940;28;20132;-37
2023/01/19 10:07:54;;;;;;;27.17;3.20;;;2.50;99.90;;;;;;5044560;28;20087;-38
2023/01/19 10:10:23;;;;;;;18.15;1.85;;;2.50;99.90;;;;;;5044131;28;20568;-37
2023/01/19 10:13:26;;;;;;;21.95;2.75;;;2.40;99.90;;;;;;5043894;28;20813;-38
2023/01/19 10:16:11;;;;;;;22.75;1.40;;;2.70;99.90;;;;;;5003128;28;20084;-37
2023/01/19 10:18:42;;;;;;;19.80;1.45;;;2.70;99.90;;;;;;5026394;28;20560;-37
2023/01/19 10:21:10;;;;;;;16.88;2.08;;;2.80;99.90;;;;;;5026830;28;20089;-37
2023/01/19 10:23:56;;;;;;;28.02;3.70;;;2.90;99.90;;;;;;5044827;28;20060;-37
2023/01/19 10:26:32;;;;;;;17.63;1.30;;;3.20;99.90;;;;;;5047289;28;20117;-37
2023/01/19 10:29:37;;;;;;;18.25;1.77;;;3.00;99.90;;;;;;5049136;28;20029;-37
2023/01/19 10:32:12;;;;;;;21.30;1.85;;;3.00;99.90;;;;;;5047349;28;20140;-37
2023/01/19 10:34:40;;;;;;;17.35;1.75;;;3.10;99.90;;;;;;5048596;28;20174;-37
2023/01/19 10:37:30;;;;;;;20.63;3.13;;;3.20;99.90;;;;;;5049029;28;20048;-37
2023/01/19 10:40:06;;;;;;;22.83;1.52;;;3.10;99.90;;;;;;5048930;28;20037;-37
2023/01/19 10:42:32;;;;;;;15.73;2.05;;;3.20;99.90;;;;;;5048501;28;20045;-37
2023/01/19 10:44:57;;;;;;;16.45;1.63;;;3.10;99.90;;;;;;5048546;28;20041;-37
2023/01/19 10:47:35;;;;;;;16.67;1.75;;;3.30;99.90;;;;;;5048419;28;20657;-37
2023/01/19 10:50:21;;;;;;;16.98;1.15;;;3.40;99.90;;;;;;5048238;28;20044;-38
2023/01/19 10:52:53;;;;;;;16.42;1.48;;;3.50;99.90;;;;;;5047901;28;20530;-38
2023/01/19 10:55:26;;;;;;;14.43;1.17;;;3.50;99.90;;;;;;5048145;28;20094;-38
2023/01/19 10:57:52;;;;;;;13.18;1.27;;;3.60;99.90;;;;;;5047135;28;20040;-37
2023/01/19 11:00:40;;;;;;;16.08;1.25;;;3.60;99.90;;;;;;5047905;28;20044;-37
2023/01/19 11:03:27;;;;;;;17.70;1.88;;;3.70;99.90;;;;;;5047479;28;20141;-37
2023/01/19 11:05:53;;;;;;;24.55;1.45;;;3.50;99.90;;;;;;5047620;28;20048;-37
2023/01/19 11:08:36;;;;;;;16.92;1.45;;;3.70;99.90;;;;;;5047776;28;20103;-37
2023/01/19 11:11:04;;;;;;;17.42;2.30;;;3.70;99.90;;;;;;5047363;28;20094;-37
2023/01/19 11:13:30;;;;;;;14.55;0.98;;;3.70;99.90;;;;;;5047558;28;20140;-37
2023/01/19 11:16:15;;;;;;;22.25;1.45;;;3.70;99.90;;;;;;5047287;28;20469;-37
2023/01/19 11:18:42;;;;;;;15.50;0.98;;;3.80;99.90;;;;;;5047443;28;20049;-37
2023/01/19 11:21:10;;;;;;;15.40;1.10;;;3.80;99.90;;;;;;5047472;28;20041;-37
2023/01/19 11:23:42;;;;;;;18.98;1.45;;;3.60;99.90;;;;;;5047239;28;20057;-37
2023/01/19 11:26:30;;;;;;;10.65;0.57;;;3.80;99.90;;;;;;5047163;28;20045;-38
2023/01/19 11:28:58;;;;;;;19.73;1.73;;;3.80;99.90;;;;;;5047185;28;20037;-37
2023/01/19 11:31:26;;;;;;;8.80;2.00;;;3.70;99.90;;;;;;5047398;28;20060;-37
2023/01/19 11:33:54;;;;;;;11.23;0.95;;;3.70;99.90;;;;;;5047260;28;20040;-38
2023/01/19 11:36:26;;;;;;;14.55;2.42;;;3.80;99.90;;;;;;5046976;28;20685;-38
2023/01/19 11:39:11;;;;;;;19.20;1.13;;;3.70;99.90;;;;;;5046430;28;20485;-38
2023/01/19 11:41:38;;;;;;;14.60;1.75;;;3.70;99.90;;;;;;5045826;28;20045;-35
2023/01/19 11:44:25;;;;;;;17.75;0.82;;;3.70;99.90;;;;;;5047080;28;20053;-35
2023/01/19 11:46:58;;;;;;;9.65;2.25;;;3.70;99.90;;;;;;5047792;28;20049;-35
2023/01/19 11:49:42;;;;;;;18.58;0.95;;;3.70;99.90;;;;;;5047984;28;20123;-35
2023/01/19 11:52:26;;;;;;;13.07;0.82;;;3.70;99.90;;;;;;5047122;28;20081;-35
2023/01/19 11:55:02;;;;;;;13.75;0.68;;;3.70;99.90;;;;;;5047270;28;20441;-35
2023/01/19 11:57:27;;;;;;;13.57;0.90;;;3.70;99.90;;;;;;5047599;28;20029;-35
2023/01/19 11:59:54;;;;;;;9.02;1.67;;;3.70;99.90;;;;;;5045731;28;20491;-35
2023/01/19 12:02:30;;;;;;;9.48;0.70;;;3.70;99.90;;;;;;5046994;28;20049;-36
2023/01/19 12:05:05;;;;;;;10.25;1.55;;;3.80;99.90;;;;;;5046791;28;20366;-35
2023/01/19 12:07:34;;;;;;;11.18;1.60;;;3.70;99.90;;;;;;5047464;28;20102;-35
2023/01/19 12:10:19;;;;;;;11.52;1.33;;;4.70;99.90;;;;;;5047618;28;20049;-35
2023/01/19 12:12:46;;;;;;;13.35;1.10;;;3.70;99.90;;;;;;5033760;28;20053;-36
2023/01/19 12:15:31;;;;;;;9.40;0.63;;;3.60;99.90;;;;;;5047741;28;20052;-35
2023/01/19 12:18:00;;;;;;;13.10;0.90;;;3.70;99.90;;;;;;5046374;28;20068;-35
2023/01/19 12:20:38;;;;;;;7.50;0.85;;;3.80;99.90;;;;;;5047570;28;20044;-35
2023/01/19 12:23:15;;;;;;;11.75;1.33;;;3.60;99.90;;;;;;5046529;28;20126;-35
2023/01/19 12:25:50;;;;;;;4.93;0.50;;;3.60;99.90;;;;;;5047284;28;20045;-35
2023/01/19 12:28:19;;;;;;;6.18;1.38;;;3.60;99.90;;;;;;5047338;28;20040;-36
2023/01/19 12:30:45;;;;;;;10.50;0.35;;;3.60;99.90;;;;;;5047370;28;20052;-35
2023/01/19 12:33:34;;;;;;;15.70;0.85;;;3.60;99.90;;;;;;5046963;28;20045;-35
2023/01/19 12:36:05;;;;;;;6.18;0.60;;;3.50;99.90;;;;;;5047430;28;20583;-35
2023/01/19 12:38:45;;;;;;;5.97;0.45;;;3.40;99.90;;;;;;5029368;28;20120;-35
2023/01/19 12:41:26;;;;;;;10.48;0.60;;;3.30;99.90;;;;;;5047383;28;20045;-35
2023/01/19 12:44:10;;;;;;;9.93;0.50;;;3.30;99.90;;;;;;5047418;28;20437;-35
2023/01/19 12:46:48;;;;;;;8.10;0.45;;;3.30;99.90;;;;;;5046828;28;20144;-36
2023/01/19 12:49:14;;;;;;;7.93;0.30;;;3.20;99.90;;;;;;5046181;28;20041;-35
2023/01/19 12:51:40;;;;;;;11.35;1.08;;;3.20;99.90;;;;;;5046799;28;20106;-35
2023/01/19 12:54:15;;;;;;;4.00;0.70;;;3.20;99.90;;;;;;5047605;28;20131;-35
2023/01/19 12:56:41;;;;;;;9.15;0.50;;;3.30;99.90;;;;;;5047763;28;20041;-35
2023/01/19 12:59:24;;;;;;;7.13;0.47;;;3.30;99.90;;;;;;5047287;28;20037;-35
2023/01/19 13:02:24;;;;;;;5.40;0.52;;;3.30;99.90;;;;;;5046692;28;20541;-35
2023/01/19 13:05:10;;;;;;;7.32;0.85;;;3.40;99.90;;;;;;5046875;28;20036;-36